»·PEaware :: ASA258 KPDX-CYVR

ASA258 :: KPDX-CYVR

FLIGHT INFORMATION

Flight Status: Arrived
Operator:
Alaska Airlines
More flights by this operator :: More flights under this callsign
Pilot: Brad M. (22842)
Aircraft: BOEING 737-800
(B738)
More flights by this aircraft type
Origin: KPDX Portland Intl
United States
Destination: CYVR Vancouver Intl
Canada
More flights between these airports :: More routes between these airports
Route: +BTG J1 SEA PAE GRIZZ5
File this flight plan on PilotEdge
Remarks:
Altitude:
(Current/Filed)
34,000ft
Speed:
(Current/Filed)
350kts
Departed: 08-Jan-19 05:46 PM
Arrived: 08-Jan-19 06:34 PM
Distance/Time
Traveled:
217nm/0:48
Distance/Time
To Go:
Arrived

Flight Plot

Page will automatically refresh every two minutes.

Flight plan parsing failed; only flown route is shown


Map Options




Map Legend


Flown Route
Filed Route
Departure Airport
Arrival Airport
Navaid (VOR, NDB)
Fix

Horizontal Profiles

Position Reports

Time Latitude Longitude Heading Altitude Ground
Speed
08-Jan-19 17:19 45.588374 -122.596325 46 37ft 0kts
08-Jan-19 17:20 45.588374 -122.596325 46 37ft 0kts
08-Jan-19 17:21 45.588374 -122.596325 46 37ft 0kts
08-Jan-19 17:22 45.588374 -122.596325 46 37ft 0kts
08-Jan-19 17:23 45.588374 -122.596325 46 37ft 0kts
08-Jan-19 17:24 45.588374 -122.596325 46 37ft 0kts
08-Jan-19 17:25 45.588374 -122.596325 46 37ft 0kts
08-Jan-19 17:26 45.588374 -122.596325 46 37ft 0kts
08-Jan-19 17:27 45.588374 -122.596325 46 37ft 0kts
08-Jan-19 17:28 45.588374 -122.596325 46 37ft 0kts
08-Jan-19 17:28 45.588374 -122.596325 46 37ft 0kts
08-Jan-19 17:30 45.588374 -122.596325 46 37ft 0kts
08-Jan-19 17:30 45.588374 -122.596325 46 37ft 0kts
08-Jan-19 17:32 45.588374 -122.596325 46 37ft 0kts
08-Jan-19 17:32 45.588374 -122.596325 46 37ft 0kts
08-Jan-19 17:33 45.588374 -122.596325 46 37ft 0kts
08-Jan-19 17:35 45.588374 -122.596325 46 37ft 0kts
08-Jan-19 17:35 45.588374 -122.596325 46 37ft 0kts
08-Jan-19 17:36 45.588336 -122.596379 46 36ft 2kts
08-Jan-19 17:37 45.587934 -122.596915 12 37ft 2kts
08-Jan-19 17:38 45.587565 -122.596645 297 37ft 0kts
08-Jan-19 17:39 45.587565 -122.596645 297 36ft 0kts
08-Jan-19 17:40 45.587759 -122.597141 299 36ft 9kts
08-Jan-19 17:41 45.589771 -122.602292 298 36ft 16kts
08-Jan-19 17:42 45.592324 -122.600496 44 36ft 12kts
08-Jan-19 17:43 45.594386 -122.597571 44 36ft 0kts
08-Jan-19 17:44 45.594849 -122.596607 72 37ft 13kts
08-Jan-19 17:45 45.583653 -122.567079 116 364ft 158kts
08-Jan-19 17:46 45.575459 -122.500796 95 2364ft 188kts
08-Jan-19 17:47 45.570849 -122.414925 94 4538ft 225kts
08-Jan-19 17:48 45.587328 -122.328309 44 6997ft 276kts
08-Jan-19 17:49 45.667334 -122.294265 14 9443ft 319kts
08-Jan-19 17:50 45.757043 -122.262476 14 11527ft 349kts
08-Jan-19 17:51 45.857523 -122.242485 354 12831ft 390kts
08-Jan-19 17:52 45.967725 -122.247072 354 15152ft 402kts
08-Jan-19 17:53 46.080483 -122.251873 355 17502ft 414kts
08-Jan-19 17:54 46.193411 -122.256684 355 19500ft 426kts
08-Jan-19 17:55 46.310742 -122.261676 355 21328ft 438kts
08-Jan-19 17:56 46.433837 -122.266905 355 23067ft 449kts
08-Jan-19 17:57 46.559871 -122.272291 356 24604ft 461kts
08-Jan-19 17:58 46.689832 -122.277898 356 26034ft 473kts
08-Jan-19 17:59 46.822236 -122.283608 356 27376ft 483kts
08-Jan-19 18:00 46.956739 -122.289348 355 28650ft 493kts
08-Jan-19 18:01 47.094753 -122.295280 355 29835ft 503kts
08-Jan-19 18:02 47.222964 -122.300729 355 31326ft 497kts
08-Jan-19 18:03 47.359114 -122.306463 355 32909ft 488kts
08-Jan-19 18:04 47.494201 -122.306961 0 33922ft 493kts
08-Jan-19 18:05 47.633777 -122.296819 359 33926ft 511kts
08-Jan-19 18:06 47.775166 -122.287469 359 33927ft 509kts
08-Jan-19 18:07 47.915832 -122.279140 354 32429ft 508kts
08-Jan-19 18:08 48.055252 -122.316836 344 27981ft 522kts
08-Jan-19 18:09 48.191418 -122.356543 345 24404ft 509kts
08-Jan-19 18:10 48.323464 -122.395048 345 21349ft 483kts
08-Jan-19 18:11 48.449428 -122.431997 346 18363ft 458kts
08-Jan-19 18:12 48.567075 -122.466633 345 15477ft 439kts
08-Jan-19 18:13 48.682147 -122.507716 331 12992ft 400kts
08-Jan-19 18:14 48.760904 -122.595527 305 12118ft 338kts
08-Jan-19 18:15 48.813623 -122.686608 306 10508ft 332kts
08-Jan-19 18:16 48.871473 -122.787171 306 10004ft 297kts
08-Jan-19 18:17 48.925261 -122.881285 306 10007ft 300kts
08-Jan-19 18:18 48.979125 -122.975894 306 10007ft 297kts
08-Jan-19 18:19 49.033069 -123.071034 306 10009ft 299kts
08-Jan-19 18:20 49.080815 -123.167039 284 9219ft 273kts
08-Jan-19 18:21 49.100008 -123.277138 282 8050ft 276kts
08-Jan-19 18:22 49.118983 -123.386594 282 7429ft 281kts
08-Jan-19 18:23 49.141378 -123.511498 290 4681ft 306kts
08-Jan-19 18:24 49.160094 -123.625155 296 4409ft 245kts
08-Jan-19 18:25 49.208683 -123.636368 50 4013ft 201kts
08-Jan-19 18:26 49.237268 -123.570181 56 3202ft 178kts
08-Jan-19 18:27 49.239985 -123.499313 101 2650ft 172kts
08-Jan-19 18:28 49.231260 -123.430877 99 2193ft 162kts
08-Jan-19 18:29 49.223680 -123.363949 98 1755ft 158kts
08-Jan-19 18:30 49.216307 -123.299770 100 1303ft 145kts
08-Jan-19 18:31 49.209816 -123.241988 100 588ft 140kts
08-Jan-19 18:32 49.203251 -123.183987 100 16ft 102kts
08-Jan-19 18:33 49.199531 -123.166175 149 16ft 11kts
08-Jan-19 18:34 49.199906 -123.173311 279 16ft 25kts
08-Jan-19 18:35 49.200897 -123.182051 280 16ft 22kts
08-Jan-19 18:36 49.198105 -123.185708 190 16ft 19kts
08-Jan-19 18:37 49.194033 -123.186692 93 16ft 9kts
08-Jan-19 18:38 49.191088 -123.184476 111 16ft 10kts
08-Jan-19 18:39 49.191828 -123.182108 10 16ft 0kts
08-Jan-19 18:40 49.191872 -123.182096 10 16ft 0kts
08-Jan-19 18:41 49.191872 -123.182096 10 16ft 0kts
08-Jan-19 18:42 49.191872 -123.182096 10 16ft 0kts
08-Jan-19 18:43 49.191872 -123.182096 10 16ft 0kts
08-Jan-19 18:44 49.191872 -123.182096 10 16ft 0kts
08-Jan-19 18:45 49.191872 -123.182096 10 16ft 0kts

Navigation Log

Ident Type
Flight plan parsing failed, navigation log unavailable